Estació meteorològica de Calldetenes (Osona, Plana de Vic)

Consulta les dades en temps real de l'estació meteorològica de Calldetenes





Hora UTC 09:30
Temperatura 16.4 ºC
Sòl 15 cm 17.7 ºC
Humitat 57.0 %
Pressió 1014.8 hPa
Pluja 0.0 mm
Velocitat vent 4.6 km/h
Direcció vent SW
Radiació solar 280.9 W/m²

Webcam

Dades diàries 2026-05-08



Hora UTC (hivern +1h; estiu +2h)
Temperatura (ºC) Humitat (%) Pressió (hPa) Velocitat vent (km/h) Precipitació (mm) Radiació solar (W/m²)
Hora UTC Aire Sòl 15 cm Humitat Pressió Vel. Dir. Vel. Max Dir. Intent. màx 5 min. Rad. Sol.
00:05 8.8 8.8 95.9 1014.2 5.5 ESE 5.5 ESE 0.0 0.1
00:10 8.8 8.9 96.0 1014.2 3.6 ESE 6.7 ESE 0.0 0.1
00:15 8.5 8.8 96.2 1014.1 4.8 ESE 6.7 ESE 0.0 0.1
00:20 8.8 8.8 97.3 1014.1 5.5 ESE 6.7 ESE 0.0 0.1
00:25 8.6 8.8 96.4 1014.0 3.5 ESE 5.3 ESE 0.0 0.1
00:30 8.5 8.7 96.4 1014.0 2.4 S 3.9 SE 0.0 0.1
00:35 8.6 8.6 97.2 1014.0 2.4 SW 3.5 SW 0.0 0.1
00:40 8.9 8.7 97.9 1014.0 2.8 SSW 5.6 SSW 0.0 0.1
00:45 9.3 8.9 98.3 1014.0 3.0 S 4.2 SSW 0.0 0.1
00:50 9.3 9.1 96.5 1014.0 2.7 SSE 4.2 S 0.0 0.1
00:55 9.0 9.1 96.1 1014.0 3.7 ESE 4.6 ESE 0.0 0.1
01:00 8.9 9.0 96.2 1014.0 4.2 ESE 6.0 ESE 0.0 0.1
01:05 8.9 8.9 96.8 1013.9 4.6 ESE 6.4 ESE 0.0 0.1
01:10 9.2 9.0 96.5 1013.9 4.7 ESE 6.7 ESE 0.0 0.1
01:15 8.9 9.1 94.8 1013.8 3.2 SE 4.9 ESE 0.0 0.1
01:20 8.7 8.9 95.4 1013.8 2.0 SSE 3.9 SE 0.0 0.1
01:25 8.7 8.7 95.9 1013.7 1.0 SSE 2.5 S 0.0 0.1
01:30 8.7 8.5 96.4 1013.7 1.9 S 3.2 S 0.0 0.1
01:35 8.7 8.5 96.5 1013.7 1.3 SSE 1.8 SSW 0.0 0.1
01:40 8.6 8.4 96.5 1013.7 2.0 ESE 3.2 ESE 0.0 0.1
01:45 8.5 8.4 96.6 1013.7 3.6 ESE 4.9 ESE 0.0 0.1
01:50 8.4 8.3 96.5 1013.7 4.6 ESE 6.0 ESE 0.0 0.1
01:55 8.3 8.3 96.5 1013.6 4.3 ESE 5.6 E 0.0 0.1
02:00 8.2 8.2 96.7 1013.6 3.9 E 6.0 ESE 0.0 0.1
02:05 8.2 8.2 96.6 1013.5 2.6 SE 4.2 SSE 0.0 0.1
02:10 8.2 8.2 96.5 1013.5 3.7 SE 5.3 ESE 0.0 0.1
02:15 8.0 8.1 96.3 1013.4 3.5 ESE 5.3 SE 0.0 0.1
02:20 7.9 7.9 96.8 1013.4 2.8 SE 3.9 SE 0.0 0.1
02:25 7.8 7.8 97.0 1013.4 1.4 SE 2.5 SE 0.0 0.1
02:30 7.8 7.7 97.5 1013.4 0.1 ESE 1.4 ESE 0.0 0.1
02:35 7.9 7.7 97.8 1013.5 2.3 ESE 3.9 ESE 0.0 0.1
02:40 8.1 7.7 98.1 1013.5 2.2 SE 3.5 SE 0.0 0.1
02:45 8.2 7.9 96.8 1013.5 1.7 ESE 3.5 SE 0.0 0.1
02:50 7.9 7.9 96.0 1013.5 2.1 SE 3.9 ESE 0.0 0.1
02:55 7.7 7.6 96.3 1013.5 2.9 E 4.2 E 0.0 0.1
03:00 7.3 7.3 96.0 1013.5 1.4 ENE 2.5 ENE 0.0 0.1
03:05 7.2 7.1 96.6 1013.4 0.2 N 1.8 N 0.0 0.1
03:10 7.1 7.0 96.6 1013.4 0.2 N 2.1 N 0.0 0.1
03:15 7.1 6.9 97.2 1013.3 1.4 ESE 3.5 ESE 0.0 0.1
03:20 6.8 6.7 96.6 1013.3 2.3 ESE 3.9 ESE 0.0 0.2
03:25 6.5 6.5 96.7 1013.3 3.7 ESE 4.9 ESE 0.0 0.1
03:30 6.4 6.3 97.2 1013.3 3.7 ESE 4.6 SE 0.0 0.1
03:35 6.0 6.1 96.6 1013.3 0.6 SE 3.9 SE 0.0 0.2
03:40 5.9 5.9 97.4 1013.3 0.8 ESE 4.6 ESE 0.0 0.1
03:45 6.1 5.7 98.2 1013.2 5.6 ESE 6.4 ESE 0.0 0.1
03:50 6.6 5.8 99.4 1013.2 5.2 ESE 6.4 ESE 0.0 0.1
03:55 6.2 6.0 96.9 1013.3 3.4 ESE 5.3 ESE 0.0 0.1
04:00 5.8 5.8 97.0 1013.3 5.9 ESE 7.4 ESE 0.0 0.1
04:05 5.6 5.7 97.4 1013.3 6.0 ESE 8.1 ESE 0.0 0.1
04:10 5.5 5.5 97.7 1013.3 6.3 ESE 8.1 ESE 0.0 0.1
04:15 5.9 5.4 99.3 1013.3 3.4 ESE 5.6 ESE 0.0 0.2
04:20 5.9 5.5 98.6 1013.3 1.6 ESE 4.6 ESE 0.0 0.2
04:25 5.6 5.5 97.8 1013.4 0.8 ESE 3.2 ESE 0.0 0.3
04:30 5.6 5.4 98.2 1013.4 0.0 NNE 0.0 ESE 0.0 0.6
04:35 5.6 5.3 98.8 1013.4 2.8 ESE 5.3 ESE 0.0 1.3
04:40 5.6 5.3 98.7 1013.4 2.6 SE 4.9 ESE 0.0 2.2
04:45 5.5 5.2 98.6 1013.5 3.0 SSE 4.9 SSE 0.0 3.4
04:50 5.4 5.1 98.6 1013.5 3.8 S 5.6 S 0.0 4.8
04:55 5.2 5.0 98.2 1013.7 2.7 S 4.9 S 0.0 6.4
05:00 5.4 4.9 99.1 1013.7 1.0 SSE 3.5 SSE 0.0 8.4
05:05 5.4 4.9 99.0 1013.7 0.3 SSW 1.8 SSW 0.0 11.1
05:10 5.5 4.9 99.3 1013.7 2.0 ESE 3.2 E 0.0 14.3
05:15 5.6 5.0 99.4 1013.7 3.9 ESE 5.3 ESE 0.0 16.5
05:20 6.2 5.4 99.8 1013.7 3.8 ESE 5.3 ESE 0.0 18.4
05:25 5.9 5.6 98.2 1013.8 2.7 SE 4.6 ESE 0.0 20.2
05:30 5.7 5.5 98.3 1013.8 2.0 ESE 3.9 ESE 0.0 22.0
05:35 5.8 5.6 98.8 1013.9 4.9 ESE 6.0 ESE 0.0 24.0
05:40 6.4 5.7 99.8 1013.9 1.8 ESE 4.9 ESE 0.0 25.4
05:45 6.4 5.9 99.3 1013.9 0.4 ESE 2.1 ESE 0.0 27.2
05:50 6.7 6.1 99.6 1013.9 0.0 ENE 1.1 ENE 0.0 29.2
05:55 7.0 6.4 99.8 1014.1 0.1 SE 1.4 SE 0.0 31.0
06:00 7.3 6.7 100.0 1014.1 0.4 ENE 1.8 ENE 0.0 32.4
06:05 7.6 7.0 100.0 1014.2 0.2 ENE 1.4 ENE 0.0 34.2
06:10 7.7 7.3 99.7 1014.2 0.1 SSW 1.8 SSW 0.0 36.5
06:15 7.9 7.5 99.5 1014.2 1.3 NNE 3.5 NNE 0.0 38.3
06:20 8.1 7.7 98.9 1014.2 1.9 NNE 3.9 NNE 0.0 41.0
06:25 8.3 7.9 97.8 1014.2 1.8 NE 4.6 ENE 0.0 200.6
06:30 8.6 8.0 97.2 1014.2 4.0 E 5.6 E 0.0 248.5
06:35 8.8 8.3 95.6 1014.4 3.2 ENE 5.3 ENE 0.0 263.1
06:40 8.9 8.4 93.7 1014.4 1.3 NE 4.9 NNE 0.0 277.5
06:45 9.0 8.5 92.2 1014.4 1.4 NE 3.5 ENE 0.0 265.8
06:50 9.2 8.6 91.8 1014.4 2.3 ENE 4.6 ENE 0.0 285.5
06:55 9.3 8.7 90.8 1014.5 1.8 E 5.3 ENE 0.0 303.6
07:00 9.5 8.8 90.7 1014.5 3.3 ENE 6.0 E 0.0 308.2
07:05 9.8 8.9 89.3 1014.5 2.9 NNE 6.4 NNE 0.0 335.3
07:10 10.0 9.1 88.3 1014.5 2.0 N 4.6 NNE 0.0 352.5
07:15 10.1 9.2 87.9 1014.5 2.3 WNW 4.9 NW 0.0 374.5
07:20 10.1 9.3 88.4 1014.5 1.5 NNW 4.2 WNW 0.0 387.6
07:25 10.2 9.4 87.5 1014.4 2.1 NW 4.6 NW 0.0 409.1
07:30 10.3 9.5 87.9 1014.4 2.8 NNE 4.9 NNW 0.0 410.3
07:35 10.6 9.6 85.9 1014.4 0.2 N 1.8 ESE 0.0 445.4
07:40 10.7 9.8 85.9 1014.4 2.2 NNW 3.9 NW 0.0 446.5
07:45 10.9 10.0 85.7 1014.4 2.4 NNW 5.6 NW 0.0 442.8
07:50 11.1 10.2 85.1 1014.4 1.5 W 5.3 WSW 0.0 436.5
07:55 11.3 10.4 83.8 1014.4 1.9 NNE 4.2 SW 0.0 435.2
08:00 11.6 10.7 84.5 1014.4 3.1 NNE 5.6 N 0.0 450.2
08:05 11.8 11.0 82.7 1014.4 2.4 NE 3.9 NNE 0.0 488.5
08:10 12.1 11.3 82.5 1014.4 2.0 NNE 4.9 N 0.0 504.1
08:15 12.5 11.7 81.8 1014.4 3.1 NE 6.0 NE 0.0 478.4
08:20 12.8 12.1 79.4 1014.4 3.1 NE 5.3 NE 0.0 499.7
08:25 13.0 12.4 78.5 1014.4 2.0 NE 4.9 NNE 0.0 536.8
08:30 13.1 12.7 77.0 1014.4 0.9 SSE 3.2 E 0.0 540.1
08:35 13.2 12.9 76.0 1014.4 0.9 SSW 3.2 SSE 0.0 548.3
08:40 13.7 13.2 73.8 1014.4 2.1 S 4.2 SSW 0.0 511.4
08:45 14.1 13.6 72.1 1014.5 2.3 NE 6.0 ENE 0.0 516.9
08:50 14.6 14.0 71.0 1014.5 3.5 N 6.4 NNE 0.0 528.0
08:55 14.7 14.4 69.1 1014.5 2.9 N 5.3 NNE 0.0 549.2
09:00 15.0 14.8 66.5 1014.5 1.9 WSW 6.4 W 0.0 551.0
09:05 15.5 15.3 65.0 1014.6 3.3 NW 5.6 NW 0.0 576.6
09:10 16.0 15.9 63.0 1014.6 2.9 N 6.0 N 0.0 503.9
09:15 16.4 16.6 59.1 1014.7 2.7 S 8.1 SSW 0.0 423.9
09:20 16.5 17.2 55.0 1014.7 4.3 SSW 8.8 SSW 0.0 344.1
09:25 16.5 17.5 56.5 1014.8 2.7 SSW 6.7 S 0.0 303.8
09:30 16.4 17.7 57.0 1014.8 4.6 SW 8.8 S 0.0 280.9
Màxima 16.5 17.7 100.0 1014.8 6.3 ESE 8.8 S 0.0 576.6
Mínima 5.2 4.9 55.0 1013.2
Total 0.0